Dugway Proving Grounds, Utah
Current Conditions -  °F | °C
As of 1:58 PM on Thursday 27 Nov 2014 (Local Time) from KU16 Reporting Station
Clear Clear  
Wind Chill: 49°   Ceiling: Unl
Heat Index: 49°   Visibility: 10mi
Dew Point: 29°   Wind: 0mph
Humidity: 46%   Direction: NA
Pressure: 30.2"   Gusts: NA
Location:  40.2°N, 112.93°W
Report Text: KU16 272058Z AUTO 00000KT 10SM CLR 09/M02 A3020 RMK AO2 SLP846 T00941017 56021 $
Loading
Personal Weather Stations






























Interactive Weather Map New forecast layout! Learn more

10-Day Weather Forecast

Advertisements
Track Severe Weather on mobile